createdAt,value
2018-05-16T00:00:07.013Z,94.70
2018-05-16T00:02:41.620Z,94.30
2018-05-16T00:05:15.298Z,94.40
2018-05-16T00:07:48.937Z,94.50
2018-05-16T00:10:23.623Z,94.70
2018-05-16T00:12:57.269Z,94.70
2018-05-16T00:15:31.953Z,94.70
2018-05-16T00:18:05.589Z,94.70
2018-05-16T00:20:39.268Z,94.70
2018-05-16T00:23:12.904Z,94.70
2018-05-16T00:25:46.580Z,94.30
2018-05-16T00:28:20.235Z,94.60
2018-05-16T00:30:54.904Z,94.30
2018-05-16T00:33:29.516Z,94.50
2018-05-16T00:36:03.187Z,94.80
2018-05-16T00:38:36.824Z,94.60
2018-05-16T00:41:11.456Z,94.60
2018-05-16T00:43:46.889Z,94.40
2018-05-16T00:46:21.509Z,94.60
2018-05-16T00:48:55.151Z,94.60
2018-05-16T00:51:34.309Z,94.60
2018-05-16T00:54:07.945Z,94.60
2018-05-16T00:56:41.620Z,94.60
2018-05-16T00:59:15.257Z,94.60
2018-05-16T01:01:48.934Z,94.60
2018-05-16T01:04:22.580Z,94.60
2018-05-16T01:06:57.230Z,94.60
2018-05-16T01:09:31.701Z,94.50
2018-05-16T01:12:05.173Z,94.50
2018-05-16T01:14:38.808Z,94.90
2018-05-16T01:17:12.490Z,95.20
2018-05-16T01:19:46.124Z,95.10
2018-05-16T01:22:19.806Z,95.30
2018-05-16T01:24:53.455Z,95.20
2018-05-16T01:27:27.129Z,95.20
2018-05-16T01:30:00.768Z,95.20
2018-05-16T01:32:34.442Z,95.00
2018-05-16T01:35:08.856Z,94.90
2018-05-16T01:37:43.503Z,94.90
2018-05-16T01:40:18.099Z,94.90
2018-05-16T01:42:52.536Z,94.90
2018-05-16T01:45:26.191Z,94.80
2018-05-16T01:48:00.846Z,95.00
2018-05-16T02:08:25.267Z,96.90
2018-05-16T02:10:59.924Z,97.20
2018-05-16T02:13:33.559Z,97.30
2018-05-16T02:16:07.245Z,97.60
2018-05-16T02:18:40.888Z,97.70
2018-05-16T02:21:14.864Z,97.70
2018-05-16T02:23:48.497Z,97.90
2018-05-16T02:26:22.184Z,98.10
2018-05-16T02:28:56.587Z,98.10
2018-05-16T02:31:30.296Z,98.10
2018-05-16T02:34:04.705Z,98.20
2018-05-16T02:36:38.391Z,97.90
2018-05-16T02:39:12.028Z,98.10
2018-05-16T02:41:46.467Z,98.30
2018-05-16T02:44:20.409Z,98.30
2018-05-16T02:46:54.704Z,98.50
2018-05-16T02:49:29.300Z,98.50
2018-05-16T02:52:02.966Z,98.60
2018-05-16T02:54:37.559Z,98.70
2018-05-16T02:57:11.234Z,98.80
2018-05-16T02:59:44.885Z,99.20
2018-05-16T03:02:19.563Z,98.80
2018-05-16T03:04:53.208Z,98.90
2018-05-16T03:07:26.892Z,99.20
2018-05-16T03:10:00.532Z,99.40
2018-05-16T03:12:34.213Z,99.40
2018-05-16T03:15:07.851Z,99.50
2018-05-16T03:17:41.532Z,99.40
2018-05-16T03:20:15.173Z,99.50
2018-05-16T03:22:48.847Z,99.50
2018-05-16T03:25:24.205Z,99.40
2018-05-16T03:27:58.842Z,99.30
2018-05-16T03:30:33.473Z,99.30
2018-05-16T03:33:07.157Z,99.10
2018-05-16T03:35:40.792Z,99.00
2018-05-16T03:38:15.424Z,98.90
2018-05-16T03:40:50.030Z,98.80
2018-05-16T03:43:23.714Z,98.70
2018-05-16T03:45:58.343Z,98.50
2018-05-16T03:48:32.025Z,98.40
2018-05-16T03:51:05.658Z,98.10
2018-05-16T03:53:40.307Z,97.80
2018-05-16T03:56:16.555Z,97.50
2018-05-16T03:59:01.481Z,96.90
2018-05-16T04:02:00.212Z,96.80
2018-05-16T04:04:33.889Z,96.50
2018-05-16T04:07:07.524Z,96.00
2018-05-16T04:09:42.223Z,95.60
2018-05-16T04:12:15.860Z,95.20
2018-05-16T04:14:50.530Z,94.90
2018-05-16T04:17:25.868Z,94.50
2018-05-16T04:19:59.543Z,94.60
2018-05-16T04:22:33.946Z,93.80
2018-05-16T04:25:07.621Z,93.70
2018-05-16T04:27:41.338Z,93.80
2018-05-16T04:30:15.029Z,93.10
2018-05-16T04:32:48.673Z,93.00
2018-05-16T04:35:23.116Z,92.30
2018-05-16T04:37:57.524Z,92.40
2018-05-16T04:40:32.156Z,91.40
2018-05-16T04:43:05.792Z,91.00
2018-05-16T04:45:39.464Z,90.20
2018-05-16T04:48:14.101Z,90.50
2018-05-16T04:50:47.771Z,89.30
2018-05-16T04:53:22.363Z,86.90
2018-05-16T04:55:57.010Z,84.00
2018-05-16T04:58:30.648Z,79.70
2018-05-16T05:01:05.396Z,76.50
2018-05-16T05:03:40.652Z,72.50
2018-05-16T05:06:15.883Z,70.20
2018-05-16T05:08:50.115Z,68.00
2018-05-16T05:11:25.270Z,68.50
2018-05-16T05:13:59.455Z,68.50
2018-05-16T05:16:33.680Z,68.80
2018-05-16T05:19:07.868Z,68.50
2018-05-16T05:21:42.100Z,67.20
2018-05-16T05:24:16.295Z,65.60
2018-05-16T05:26:52.320Z,62.10
2018-05-16T05:29:26.699Z,62.10
2018-05-16T05:32:00.931Z,61.10
2018-05-16T05:34:36.108Z,59.00
2018-05-16T05:37:11.100Z,59.90
2018-05-16T05:39:45.299Z,59.80
2018-05-16T05:42:19.529Z,60.70
2018-05-16T05:44:53.723Z,61.40
2018-05-16T05:47:27.976Z,62.20
2018-05-16T05:50:02.944Z,62.80
2018-05-16T05:52:37.170Z,62.70
2018-05-16T05:55:11.363Z,61.60
2018-05-16T05:57:45.587Z,61.80
2018-05-16T06:00:21.337Z,62.70
2018-05-16T06:03:01.279Z,63.10
2018-05-16T06:05:36.629Z,63.20
2018-05-16T06:08:14.141Z,63.10
2018-05-16T06:10:49.634Z,61.70
2018-05-16T06:13:25.083Z,61.70
2018-05-16T06:16:00.050Z,62.10
2018-05-16T06:18:34.330Z,61.70
2018-05-16T06:21:17.108Z,61.30
2018-05-16T06:23:56.930Z,61.30
2018-05-16T06:26:39.138Z,58.90
2018-05-16T06:29:17.496Z,56.80
2018-05-16T06:31:57.168Z,49.60
2018-05-16T06:34:31.951Z,49.50
2018-05-16T06:37:06.680Z,47.60
2018-05-16T06:39:43.224Z,46.20
2018-05-16T06:42:18.826Z,46.10
2018-05-16T06:44:53.210Z,43.60
2018-05-16T06:47:30.028Z,44.50
2018-05-16T06:50:06.441Z,44.50
2018-05-16T06:52:42.680Z,47.00
2018-05-16T06:55:17.072Z,47.40
2018-05-16T06:57:52.170Z,47.20
2018-05-16T07:00:26.892Z,42.60
2018-05-16T07:03:02.765Z,43.00
2018-05-16T07:05:41.515Z,39.50
2018-05-16T07:08:16.602Z,39.50
2018-05-16T07:10:51.604Z,36.70
2018-05-16T07:13:26.768Z,36.60
2018-05-16T07:16:01.682Z,34.50
2018-05-16T07:18:36.355Z,35.00
2018-05-16T07:21:10.298Z,35.00
2018-05-16T07:23:44.205Z,35.50
2018-05-16T07:26:19.132Z,34.20
2018-05-16T07:28:53.036Z,32.80
2018-05-16T07:31:26.969Z,32.50
2018-05-16T07:34:01.639Z,31.00
2018-05-16T07:36:35.581Z,30.90
2018-05-16T07:39:09.484Z,31.30
2018-05-16T07:41:43.454Z,30.80
2018-05-16T07:44:17.375Z,30.40
2018-05-16T07:46:51.315Z,29.70
2018-05-16T07:49:25.227Z,28.60
2018-05-16T07:51:59.934Z,28.40
2018-05-16T07:54:33.845Z,28.30
2018-05-16T07:57:07.783Z,27.70
2018-05-16T07:59:42.490Z,28.90
2018-05-16T08:02:17.190Z,31.10
2018-05-16T08:04:51.088Z,30.90
2018-05-16T08:07:25.029Z,32.40
2018-05-16T08:10:00.196Z,33.50
2018-05-16T08:12:36.632Z,36.50
2018-05-16T08:15:11.803Z,36.40
2018-05-16T08:17:46.792Z,37.90
2018-05-16T08:20:20.987Z,37.80
2018-05-16T08:22:56.219Z,38.10
2018-05-16T08:25:30.423Z,39.10
2018-05-16T08:28:05.632Z,38.80
2018-05-16T08:30:41.561Z,37.50
2018-05-16T08:33:15.801Z,37.50
2018-05-16T08:35:50.809Z,35.60
2018-05-16T08:38:25.046Z,35.60
2018-05-16T08:41:00.011Z,35.00
2018-05-16T08:43:34.239Z,35.00
2018-05-16T08:46:09.070Z,34.60
2018-05-16T08:48:43.312Z,35.30
2018-05-16T08:51:18.471Z,36.20
2018-05-16T08:53:53.466Z,40.30
2018-05-16T08:56:27.651Z,40.20
2018-05-16T08:59:01.879Z,43.20
2018-05-16T09:01:36.064Z,40.20
2018-05-16T09:04:12.032Z,41.40
2018-05-16T09:06:46.215Z,41.40
2018-05-16T09:09:22.189Z,39.20
2018-05-16T09:11:56.386Z,39.20
2018-05-16T09:14:31.392Z,40.70
2018-05-16T09:17:05.593Z,40.70
2018-05-16T09:19:40.788Z,42.00
2018-05-16T09:22:14.991Z,43.30
2018-05-16T09:24:50.205Z,42.60
2018-05-16T09:27:24.394Z,42.20
2018-05-16T09:29:58.649Z,44.40
2018-05-16T09:32:33.609Z,46.30
2018-05-16T09:35:07.840Z,46.20
2018-05-16T09:37:42.059Z,47.20
2018-05-16T09:40:16.308Z,47.10
2018-05-16T09:42:50.664Z,47.20
2018-05-16T09:45:24.897Z,46.60
2018-05-16T09:47:59.076Z,44.80
2018-05-16T09:50:34.259Z,44.70
2018-05-16T09:53:08.439Z,42.30
2018-05-16T09:55:42.668Z,42.40
2018-05-16T09:58:16.849Z,41.30
2018-05-16T10:00:51.080Z,42.00
2018-05-16T10:03:25.276Z,42.80
2018-05-16T10:06:00.274Z,42.50
2018-05-16T10:08:34.466Z,42.50
2018-05-16T10:11:09.653Z,42.20
2018-05-16T10:13:44.628Z,43.90
2018-05-16T10:16:18.852Z,43.90
2018-05-16T10:18:53.036Z,44.60
2018-05-16T10:21:27.323Z,45.10
2018-05-16T10:24:02.285Z,46.00
2018-05-16T10:26:36.522Z,45.90
2018-05-16T10:29:10.703Z,45.10
2018-05-16T10:31:44.941Z,43.80
2018-05-16T10:34:20.862Z,44.30
2018-05-16T10:36:55.847Z,42.10
2018-05-16T10:39:30.041Z,42.00
2018-05-16T10:42:04.273Z,43.00
2018-05-16T10:44:39.436Z,43.50
2018-05-16T10:47:14.441Z,44.40
2018-05-16T10:49:48.639Z,44.20
2018-05-16T10:52:22.881Z,44.70
2018-05-16T10:54:58.027Z,44.10
2018-05-16T10:57:32.264Z,45.10
2018-05-16T11:00:06.482Z,46.20
2018-05-16T11:02:41.704Z,45.80
2018-05-16T11:05:16.661Z,44.90
2018-05-16T11:07:51.094Z,44.80
2018-05-16T11:10:25.575Z,45.60
2018-05-16T11:13:00.943Z,44.40
2018-05-16T11:15:35.147Z,42.40
2018-05-16T11:18:10.357Z,43.10
2018-05-16T11:20:45.333Z,44.00
2018-05-16T11:23:20.555Z,43.90
2018-05-16T11:25:54.819Z,43.70
2018-05-16T11:28:29.497Z,44.30
2018-05-16T11:31:03.707Z,44.10
2018-05-16T11:33:37.944Z,42.20
2018-05-16T11:36:12.140Z,42.20
2018-05-16T11:38:47.332Z,41.10
2018-05-16T11:41:21.533Z,38.50
2018-05-16T11:43:55.765Z,40.10
2018-05-16T11:46:29.962Z,39.80
2018-05-16T11:49:04.264Z,40.90
2018-05-16T11:51:38.607Z,38.80
2018-05-16T11:54:14.613Z,43.90
2018-05-16T11:56:48.807Z,43.80
2018-05-16T11:59:23.811Z,39.90
2018-05-16T12:01:58.019Z,39.90
2018-05-16T12:04:32.252Z,41.70
2018-05-16T12:07:07.220Z,41.60
2018-05-16T12:09:41.474Z,41.60
2018-05-16T12:12:15.666Z,43.30
2018-05-16T12:14:49.946Z,42.30
2018-05-16T12:17:24.305Z,43.80
2018-05-16T12:19:59.557Z,45.00
2018-05-16T12:22:34.726Z,45.40
2018-05-16T12:25:10.704Z,45.10
2018-05-16T12:27:44.905Z,45.00
2018-05-16T12:30:20.863Z,45.10
2018-05-16T12:32:55.057Z,45.10
2018-05-16T12:35:30.055Z,44.90
2018-05-16T12:38:04.248Z,44.80
2018-05-16T12:40:39.447Z,45.40
2018-05-16T12:43:18.096Z,42.90
2018-05-16T12:45:52.370Z,42.90
2018-05-16T12:48:27.336Z,42.30
2018-05-16T12:51:02.546Z,42.30
2018-05-16T12:53:37.708Z,42.30
2018-05-16T12:56:11.942Z,42.70
2018-05-16T12:58:46.155Z,42.30
2018-05-16T13:01:21.415Z,42.60
2018-05-16T13:03:55.801Z,41.10
2018-05-16T13:06:30.027Z,41.00
2018-05-16T13:09:03.344Z,41.00
2018-05-16T13:11:38.566Z,41.90
2018-05-16T13:14:12.769Z,41.80
2018-05-16T13:16:47.947Z,40.50
2018-05-16T13:19:22.144Z,40.30
2018-05-16T13:21:56.376Z,39.40
2018-05-16T13:24:31.569Z,40.70
2018-05-16T13:27:06.562Z,39.60
2018-05-16T13:29:41.520Z,39.20
2018-05-16T13:32:15.793Z,39.30
2018-05-16T13:34:50.982Z,40.10
2018-05-16T13:37:25.203Z,40.60
2018-05-16T13:39:59.413Z,43.30
2018-05-16T13:42:33.636Z,46.10
2018-05-16T13:45:08.820Z,46.40
2018-05-16T13:47:43.817Z,46.40
2018-05-16T13:50:18.016Z,46.40
2018-05-16T13:52:52.308Z,45.60
2018-05-16T13:55:26.506Z,45.40
2018-05-16T13:58:00.736Z,45.60
2018-05-16T14:00:35.943Z,44.50
2018-05-16T14:03:10.945Z,44.50
2018-05-16T14:05:45.122Z,44.40
2018-05-16T14:08:19.363Z,44.70
2018-05-16T14:10:53.570Z,42.70
2018-05-16T14:13:27.807Z,42.90
2018-05-16T14:16:02.003Z,45.00
2018-05-16T14:18:36.243Z,44.00
2018-05-16T14:21:11.410Z,44.10
2018-05-16T14:23:45.711Z,44.00
2018-05-16T14:26:21.000Z,44.80
2018-05-16T14:28:55.241Z,46.20
2018-05-16T14:31:29.490Z,45.10
2018-05-16T14:34:03.728Z,43.10
2018-05-16T14:36:37.923Z,43.60
2018-05-16T14:39:12.157Z,43.20
2018-05-16T14:41:46.359Z,42.20
2018-05-16T14:44:21.593Z,42.60
2018-05-16T14:46:56.765Z,42.50
2018-05-16T14:49:31.024Z,42.20
2018-05-16T14:52:06.013Z,41.80
2018-05-16T14:54:41.225Z,42.00
2018-05-16T14:57:17.485Z,41.70
2018-05-16T14:59:53.437Z,41.70
2018-05-16T15:02:28.160Z,41.30
2018-05-16T15:05:05.015Z,40.20
2018-05-16T15:07:46.295Z,40.40
2018-05-16T15:10:22.091Z,39.90
2018-05-16T15:12:57.211Z,39.90
2018-05-16T15:15:33.604Z,39.80
2018-05-16T15:18:09.587Z,40.70
2018-05-16T15:20:46.195Z,40.70
2018-05-16T15:23:23.425Z,40.70
2018-05-16T15:25:59.072Z,41.10
2018-05-16T15:28:34.408Z,41.10
2018-05-16T15:31:10.795Z,40.90
2018-05-16T15:33:45.455Z,41.50
2018-05-16T15:36:20.185Z,41.90
2018-05-16T15:38:55.698Z,41.30
2018-05-16T15:41:31.848Z,42.30
2018-05-16T15:44:06.940Z,41.80
2018-05-16T15:46:41.509Z,41.80
2018-05-16T15:49:17.116Z,42.00
2018-05-16T15:51:51.634Z,42.20
2018-05-16T15:54:26.661Z,42.00
2018-05-16T15:57:01.487Z,40.50
2018-05-16T15:59:36.951Z,40.30
2018-05-16T16:02:11.775Z,40.50
2018-05-16T16:04:46.230Z,41.90
2018-05-16T16:07:20.474Z,44.40
2018-05-16T16:09:55.581Z,47.30
2018-05-16T16:12:31.573Z,49.60
2018-05-16T16:15:06.455Z,49.60
2018-05-16T16:17:41.571Z,50.30
2018-05-16T16:20:16.059Z,50.40
2018-05-16T16:22:52.323Z,50.50
2018-05-16T16:25:28.564Z,50.70
2018-05-16T16:28:04.243Z,50.60
2018-05-16T16:30:37.846Z,51.40
2018-05-16T16:33:13.202Z,52.10
2018-05-16T16:35:48.682Z,53.80
2018-05-16T16:38:23.418Z,54.60
2018-05-16T16:40:58.410Z,54.50
2018-05-16T16:43:32.608Z,54.50
2018-05-16T16:46:06.899Z,55.50
2018-05-16T16:48:41.074Z,55.20
2018-05-16T16:51:15.290Z,55.70
2018-05-16T16:53:49.460Z,55.70
2018-05-16T16:56:23.684Z,56.00
2018-05-16T16:58:57.868Z,55.80
2018-05-16T17:01:32.098Z,55.50
2018-05-16T17:04:06.296Z,55.80
2018-05-16T17:06:40.519Z,55.40
2018-05-16T17:09:15.477Z,55.50
2018-05-16T17:11:50.684Z,55.50
2018-05-16T17:14:27.517Z,55.20
2018-05-16T17:17:02.512Z,56.10
2018-05-16T17:19:36.713Z,56.10
2018-05-16T17:22:10.927Z,55.50
2018-05-16T17:24:46.085Z,55.20
2018-05-16T17:27:21.277Z,55.70
2018-05-16T17:29:55.465Z,56.20
2018-05-16T17:32:30.654Z,55.90
2018-05-16T17:35:04.532Z,55.70
2018-05-16T17:37:38.773Z,56.20
2018-05-16T17:40:12.978Z,56.20
2018-05-16T17:42:47.206Z,56.30
2018-05-16T17:45:22.388Z,56.00
2018-05-16T17:47:57.405Z,56.60
2018-05-16T17:50:31.602Z,56.30
2018-05-16T17:53:05.843Z,56.70
2018-05-16T17:55:40.995Z,57.00
2018-05-16T17:58:15.978Z,56.90
2018-05-16T18:00:50.206Z,56.90
2018-05-16T18:03:25.556Z,57.10
2018-05-16T18:05:59.738Z,57.10
2018-05-16T18:08:34.993Z,57.60
2018-05-16T18:11:09.170Z,58.00
2018-05-16T18:14:04.533Z,57.80
2018-05-16T18:16:50.715Z,57.60
2018-05-16T18:19:25.904Z,57.50
2018-05-16T18:22:00.099Z,57.30
2018-05-16T18:24:34.365Z,57.30
2018-05-16T18:27:08.237Z,57.80
2018-05-16T18:29:42.476Z,58.10
2018-05-16T18:32:16.671Z,58.40
2018-05-16T18:34:51.875Z,59.00
2018-05-16T18:37:27.817Z,60.30
2018-05-16T18:40:02.814Z,60.30
2018-05-16T18:42:37.087Z,60.10
2018-05-16T18:45:11.452Z,60.40
2018-05-16T18:47:45.733Z,60.70
2018-05-16T18:50:20.056Z,60.90
2018-05-16T18:52:54.260Z,61.10
2018-05-16T18:55:28.521Z,60.60
2018-05-16T18:58:02.720Z,59.90
2018-05-16T19:00:42.463Z,59.00
2018-05-16T19:03:16.678Z,58.80
2018-05-16T19:05:50.913Z,59.10
2018-05-16T19:08:25.892Z,60.90
2018-05-16T19:11:00.541Z,60.60
2018-05-16T19:13:34.753Z,61.30
2018-05-16T19:16:09.025Z,62.60
2018-05-16T19:18:44.224Z,63.40
2018-05-16T19:21:18.518Z,64.50
2018-05-16T19:23:52.727Z,65.10
2018-05-16T19:26:26.994Z,65.60
2018-05-16T19:29:02.016Z,67.70
2018-05-16T19:31:37.042Z,68.50
2018-05-16T19:34:11.319Z,68.50
2018-05-16T19:36:45.582Z,69.40
2018-05-16T19:39:20.571Z,71.30
2018-05-16T19:41:54.838Z,71.30
2018-05-16T19:44:29.821Z,74.10
2018-05-16T19:47:04.280Z,76.20
2018-05-16T19:49:38.880Z,76.30
2018-05-16T19:52:13.318Z,78.50
2018-05-16T19:54:46.956Z,78.40
2018-05-16T19:57:20.640Z,79.90
2018-05-16T19:59:54.301Z,80.90
2018-05-16T20:02:28.016Z,81.90
2018-05-16T20:05:03.190Z,82.70
2018-05-16T20:07:37.877Z,83.70
2018-05-16T20:10:12.087Z,84.50
2018-05-16T20:12:45.781Z,85.20
2018-05-16T20:15:19.451Z,86.30
2018-05-16T20:17:54.141Z,87.50
2018-05-16T20:20:27.788Z,89.40
2018-05-16T20:23:02.232Z,90.70
2018-05-16T20:25:36.851Z,90.40
2018-05-16T20:28:11.508Z,90.80
2018-05-16T20:30:45.163Z,91.20
2018-05-16T20:33:19.408Z,91.70
2018-05-16T20:35:53.056Z,92.20
2018-05-16T20:38:26.738Z,92.60
2018-05-16T20:41:00.389Z,93.20
2018-05-16T20:43:34.848Z,93.70
2018-05-16T20:46:08.483Z,93.70
2018-05-16T20:48:42.170Z,94.20
2018-05-16T20:51:16.194Z,94.40
2018-05-16T20:53:51.370Z,94.60
2018-05-16T20:56:25.023Z,95.10
2018-05-16T20:58:59.686Z,95.10
2018-05-16T21:01:33.332Z,95.50
2018-05-16T21:04:07.029Z,95.70
2018-05-16T21:06:41.636Z,95.80
2018-05-16T21:09:15.306Z,96.00
2018-05-16T21:11:49.716Z,96.10
2018-05-16T21:14:25.145Z,95.80
2018-05-16T21:16:58.785Z,95.80
2018-05-16T21:19:33.440Z,95.80
2018-05-16T21:22:07.079Z,95.60
2018-05-16T21:24:41.530Z,95.30
2018-05-16T21:27:15.171Z,95.20
2018-05-16T21:29:49.863Z,94.80
2018-05-16T21:32:23.500Z,95.00
2018-05-16T21:34:57.186Z,95.00
2018-05-16T21:37:30.821Z,94.90
2018-05-16T21:40:05.272Z,95.50
2018-05-16T21:42:39.870Z,95.70
2018-05-16T21:45:13.540Z,95.90
2018-05-16T21:47:47.192Z,95.90
2018-05-16T21:50:20.874Z,95.90
2018-05-16T21:52:55.281Z,95.90
2018-05-16T21:55:29.940Z,95.80
2018-05-16T21:58:03.583Z,95.60
2018-05-16T22:00:36.943Z,95.40
2018-05-16T22:03:10.578Z,95.60
2018-05-16T22:05:44.262Z,95.70
2018-05-16T22:08:17.899Z,95.90
2018-05-16T22:10:52.575Z,96.00
2018-05-16T22:13:26.221Z,96.40
2018-05-16T22:15:59.900Z,96.60
2018-05-16T22:18:33.534Z,96.70
2018-05-16T22:21:08.960Z,97.20
2018-05-16T22:23:42.607Z,97.20
2018-05-16T22:26:16.300Z,97.30
2018-05-16T22:28:50.896Z,97.50
2018-05-16T22:31:30.031Z,97.60
2018-05-16T22:34:09.984Z,97.90
2018-05-16T22:36:49.792Z,97.60
2018-05-16T22:39:28.983Z,97.60
2018-05-16T22:42:08.187Z,97.60
2018-05-16T22:44:47.967Z,97.60
2018-05-16T22:47:21.646Z,97.40
2018-05-16T22:49:56.048Z,97.10
2018-05-16T22:52:29.733Z,97.10
2018-05-16T22:55:04.336Z,96.90
2018-05-16T22:57:39.009Z,97.10
2018-05-16T23:00:13.641Z,98.00
2018-05-16T23:02:47.325Z,98.00
2018-05-16T23:05:21.736Z,98.70
2018-05-16T23:07:56.372Z,98.60
2018-05-16T23:10:30.775Z,98.90
2018-05-16T23:13:04.445Z,98.90
2018-05-16T23:15:38.092Z,98.90
2018-05-16T23:18:12.904Z,98.70
2018-05-16T23:20:46.539Z,98.70
2018-05-16T23:23:20.237Z,98.40
2018-05-16T23:25:54.831Z,98.00
2018-05-16T23:28:28.518Z,97.70
2018-05-16T23:31:02.152Z,97.40
2018-05-16T23:33:37.560Z,97.20
2018-05-16T23:36:12.162Z,97.20
2018-05-16T23:38:46.827Z,97.20
2018-05-16T23:41:20.462Z,97.30
2018-05-16T23:43:54.146Z,97.30
2018-05-16T23:46:28.544Z,97.40
2018-05-16T23:49:03.203Z,97.40
2018-05-16T23:51:37.791Z,97.50
2018-05-16T23:54:11.468Z,97.60
2018-05-16T23:56:45.105Z,98.00
2018-05-16T23:59:19.552Z,97.70
